createdAt,value
2022-09-18T00:00:33.722Z,79.80
2022-09-18T00:03:01.733Z,80.00
2022-09-18T00:05:29.683Z,80.20
2022-09-18T00:07:57.702Z,80.50
2022-09-18T00:10:25.539Z,80.60
2022-09-18T00:12:54.758Z,80.80
2022-09-18T00:15:22.723Z,81.00
2022-09-18T00:17:50.656Z,81.10
2022-09-18T00:20:18.724Z,81.20
2022-09-18T00:22:47.118Z,81.40
2022-09-18T00:25:14.958Z,81.50
2022-09-18T00:27:42.827Z,81.50
2022-09-18T00:30:12.741Z,81.40
2022-09-18T00:32:40.865Z,81.30
2022-09-18T00:35:09.351Z,81.40
2022-09-18T00:37:37.172Z,81.30
2022-09-18T00:40:05.985Z,81.40
2022-09-18T00:42:33.963Z,81.30
2022-09-18T00:45:01.847Z,81.20
2022-09-18T00:47:33.032Z,81.20
2022-09-18T00:50:04.591Z,81.20
2022-09-18T00:52:35.162Z,81.00
2022-09-18T00:55:05.787Z,81.00
2022-09-18T00:57:34.773Z,80.90
2022-09-18T01:00:08.006Z,80.90
2022-09-18T01:02:37.245Z,80.80
2022-09-18T01:05:05.887Z,80.80
2022-09-18T01:07:41.213Z,80.70
2022-09-18T01:10:14.714Z,80.80
2022-09-18T01:12:45.134Z,80.80
2022-09-18T01:15:15.623Z,80.80
2022-09-18T01:17:50.715Z,80.80
2022-09-18T01:20:27.412Z,80.80
2022-09-18T01:23:06.036Z,80.80
2022-09-18T01:25:38.263Z,81.00
2022-09-18T01:28:12.592Z,81.10
2022-09-18T01:30:42.736Z,81.00
2022-09-18T01:33:11.830Z,80.80
2022-09-18T01:35:42.262Z,80.80
2022-09-18T01:38:14.134Z,80.80
2022-09-18T01:40:45.484Z,80.70
2022-09-18T01:43:16.362Z,80.70
2022-09-18T01:45:45.931Z,80.60
2022-09-18T01:48:20.103Z,80.60
2022-09-18T01:50:53.102Z,80.60
2022-09-18T01:53:23.641Z,80.50
2022-09-18T01:55:53.502Z,80.50
2022-09-18T01:58:24.623Z,80.50
2022-09-18T02:00:55.107Z,80.40
2022-09-18T02:03:26.447Z,80.30
2022-09-18T02:05:56.407Z,80.20
2022-09-18T02:08:26.350Z,80.10
2022-09-18T02:11:00.031Z,80.10
2022-09-18T02:13:31.132Z,80.10
2022-09-18T02:16:01.936Z,80.00
2022-09-18T02:18:34.475Z,80.00
2022-09-18T02:21:08.936Z,79.70
2022-09-18T02:23:39.535Z,79.70
2022-09-18T02:26:08.872Z,79.70
2022-09-18T02:28:39.728Z,79.70
2022-09-18T02:31:07.673Z,80.00
2022-09-18T02:33:36.696Z,80.20
2022-09-18T02:36:20.720Z,80.40
2022-09-18T02:38:53.487Z,80.80
2022-09-18T02:41:29.518Z,81.20
2022-09-18T02:44:01.577Z,81.50
2022-09-18T02:46:38.488Z,81.40
2022-09-18T02:49:10.720Z,81.60
2022-09-18T02:51:44.205Z,81.60
2022-09-18T02:54:13.806Z,81.80
2022-09-18T02:56:45.679Z,81.80
2022-09-18T02:59:18.288Z,81.80
2022-09-18T03:01:52.391Z,81.80
2022-09-18T03:04:23.177Z,81.80
2022-09-18T03:07:09.181Z,81.70
2022-09-18T03:09:42.243Z,81.70
2022-09-18T03:12:10.822Z,81.90
2022-09-18T03:14:42.558Z,81.80
2022-09-18T03:17:10.956Z,81.80
2022-09-18T03:19:39.276Z,81.80
2022-09-18T03:22:08.171Z,81.70
2022-09-18T03:24:38.000Z,81.70
2022-09-18T03:27:07.096Z,81.80
2022-09-18T03:29:35.255Z,81.80
2022-09-18T03:32:05.261Z,81.70
2022-09-18T03:34:41.644Z,81.80
2022-09-18T03:37:09.597Z,81.80
2022-09-18T03:39:37.645Z,81.90
2022-09-18T03:42:07.791Z,82.00
2022-09-18T03:44:36.949Z,82.00
2022-09-18T03:47:10.974Z,82.10
2022-09-18T03:49:38.850Z,82.10
2022-09-18T03:52:06.766Z,82.10
2022-09-18T03:54:41.232Z,82.00
2022-09-18T03:57:35.097Z,81.80
2022-09-18T04:00:27.596Z,81.70
2022-09-18T04:03:03.605Z,81.60
2022-09-18T04:06:07.791Z,81.60
2022-09-18T04:08:54.364Z,81.30
2022-09-18T04:11:38.117Z,81.50
2022-09-18T04:14:06.507Z,81.40
2022-09-18T04:16:35.150Z,81.30
2022-09-18T04:19:04.520Z,81.40
2022-09-18T04:21:34.996Z,81.30
2022-09-18T04:24:03.128Z,81.20
2022-09-18T04:26:31.224Z,81.40
2022-09-18T04:29:04.443Z,81.40
2022-09-18T04:31:32.894Z,81.30
2022-09-18T04:34:07.166Z,81.30
2022-09-18T04:36:36.335Z,81.30
2022-09-18T04:39:04.550Z,81.40
2022-09-18T04:41:32.491Z,81.30
2022-09-18T04:44:02.456Z,81.30
2022-09-18T04:46:30.451Z,81.20
2022-09-18T04:48:58.354Z,81.30
2022-09-18T04:51:30.136Z,81.20
2022-09-18T04:53:57.941Z,81.20
2022-09-18T04:56:26.471Z,81.10
2022-09-18T04:58:54.830Z,81.20
2022-09-18T05:01:23.529Z,81.10
2022-09-18T05:03:51.672Z,81.00
2022-09-18T05:06:27.394Z,80.90
2022-09-18T05:08:56.914Z,80.80
2022-09-18T05:11:28.258Z,80.70
2022-09-18T05:13:56.931Z,80.60
2022-09-18T05:16:27.802Z,80.50
2022-09-18T05:19:21.899Z,80.60
2022-09-18T05:21:50.315Z,80.60
2022-09-18T05:24:20.426Z,80.70
2022-09-18T05:26:49.704Z,80.60
2022-09-18T05:29:20.746Z,80.60
2022-09-18T05:31:50.367Z,80.20
2022-09-18T05:34:18.671Z,80.20
2022-09-18T05:36:46.685Z,80.00
2022-09-18T05:39:17.587Z,80.00
2022-09-18T05:41:49.749Z,79.90
2022-09-18T05:44:17.671Z,79.70
2022-09-18T05:46:47.894Z,79.90
2022-09-18T05:49:17.287Z,79.90
2022-09-18T05:51:46.393Z,79.40
2022-09-18T05:54:15.705Z,79.40
2022-09-18T05:56:49.700Z,79.50
2022-09-18T05:59:18.536Z,79.40
2022-09-18T06:01:49.000Z,79.60
2022-09-18T06:04:22.791Z,79.50
2022-09-18T06:07:01.903Z,79.80
2022-09-18T06:09:30.577Z,79.70
2022-09-18T06:11:59.829Z,79.60
2022-09-18T06:14:27.669Z,79.70
2022-09-18T06:16:55.599Z,79.70
2022-09-18T06:19:23.470Z,79.60
2022-09-18T06:21:53.050Z,79.70
2022-09-18T06:24:22.743Z,79.80
2022-09-18T06:27:02.069Z,79.70
2022-09-18T06:29:29.944Z,79.70
2022-09-18T06:32:04.230Z,79.60
2022-09-18T06:34:36.736Z,79.60
2022-09-18T06:37:09.970Z,79.60
2022-09-18T06:39:58.490Z,79.40
2022-09-18T06:42:45.311Z,79.40
2022-09-18T06:45:33.820Z,79.40
2022-09-18T06:48:02.277Z,79.00
2022-09-18T06:50:31.324Z,79.00
2022-09-18T06:53:02.347Z,79.10
2022-09-18T06:55:32.647Z,78.90
2022-09-18T06:58:02.289Z,78.80
2022-09-18T07:00:30.154Z,78.70
2022-09-18T07:02:58.631Z,78.60
2022-09-18T07:05:46.056Z,78.60
2022-09-18T07:08:25.486Z,78.30
2022-09-18T07:11:01.006Z,78.70
2022-09-18T07:13:32.584Z,78.50
2022-09-18T07:16:01.428Z,78.30
2022-09-18T07:18:29.351Z,78.30
2022-09-18T07:20:59.175Z,78.30
2022-09-18T07:23:35.775Z,78.50
2022-09-18T07:26:05.320Z,78.20
2022-09-18T07:28:36.027Z,78.50
2022-09-18T07:31:16.288Z,78.30
2022-09-18T07:33:55.994Z,78.20
2022-09-18T07:36:28.355Z,78.30
2022-09-18T07:38:56.526Z,78.30
2022-09-18T07:41:27.580Z,77.90
2022-09-18T07:43:57.152Z,78.00
2022-09-18T07:46:25.240Z,78.20
2022-09-18T07:48:58.014Z,78.60
2022-09-18T07:51:30.118Z,78.80
2022-09-18T07:54:00.306Z,78.70
2022-09-18T07:56:48.690Z,78.30
2022-09-18T07:59:22.805Z,77.80
2022-09-18T08:01:58.562Z,77.20
2022-09-18T08:04:28.895Z,76.60
2022-09-18T08:07:15.399Z,75.70
2022-09-18T08:10:03.790Z,75.60
2022-09-18T08:12:44.418Z,74.90
2022-09-18T08:15:32.840Z,74.90
2022-09-18T08:18:19.704Z,75.30
2022-09-18T08:21:20.116Z,74.80
2022-09-18T08:23:51.258Z,74.50
2022-09-18T08:26:22.437Z,74.30
2022-09-18T08:28:52.650Z,74.10
2022-09-18T08:31:22.105Z,74.00
2022-09-18T08:33:55.206Z,73.20
2022-09-18T08:36:25.466Z,73.20
2022-09-18T08:39:03.141Z,73.10
2022-09-18T08:41:56.270Z,72.50
2022-09-18T08:44:29.360Z,72.10
2022-09-18T08:47:04.039Z,72.30
2022-09-18T08:49:34.073Z,72.30
2022-09-18T08:52:11.304Z,72.30
2022-09-18T08:54:44.881Z,72.20
2022-09-18T08:57:22.480Z,72.80
2022-09-18T09:00:02.869Z,73.20
2022-09-18T09:02:41.825Z,72.80
2022-09-18T09:05:12.433Z,73.20
2022-09-18T09:07:50.190Z,73.00
2022-09-18T09:10:26.150Z,73.20
2022-09-18T09:12:59.713Z,73.20
2022-09-18T09:15:36.703Z,72.90
2022-09-18T09:18:15.171Z,73.20
2022-09-18T09:20:48.015Z,72.60
2022-09-18T09:23:18.795Z,73.10
2022-09-18T09:25:55.606Z,73.20
2022-09-18T09:28:33.882Z,73.10
2022-09-18T09:31:35.294Z,72.80
2022-09-18T09:34:33.198Z,72.20
2022-09-18T09:37:13.881Z,72.50
2022-09-18T09:39:42.810Z,73.00
2022-09-18T09:42:15.425Z,72.80
2022-09-18T09:44:49.704Z,72.40
2022-09-18T09:47:27.776Z,72.30
2022-09-18T09:50:01.074Z,72.00
2022-09-18T09:52:30.209Z,72.10
2022-09-18T09:55:15.193Z,71.90
2022-09-18T09:57:47.952Z,71.80
2022-09-18T10:00:17.885Z,71.10
2022-09-18T10:03:06.912Z,71.10
2022-09-18T10:05:44.966Z,71.10
2022-09-18T10:08:17.809Z,70.80
2022-09-18T10:10:50.309Z,70.10
2022-09-18T10:13:20.649Z,70.50
2022-09-18T10:15:51.153Z,70.50
2022-09-18T10:18:24.603Z,70.20
2022-09-18T10:20:59.306Z,70.30
2022-09-18T10:23:33.809Z,70.20
2022-09-18T10:26:03.635Z,70.40
2022-09-18T10:28:32.758Z,70.00
2022-09-18T10:31:04.337Z,70.30
2022-09-18T10:33:37.022Z,70.20
2022-09-18T10:36:17.832Z,70.50
2022-09-18T10:38:46.308Z,70.00
2022-09-18T10:41:33.250Z,70.40
2022-09-18T10:44:04.670Z,70.40
2022-09-18T10:46:34.681Z,70.20
2022-09-18T10:49:05.943Z,70.60
2022-09-18T10:51:36.059Z,70.40
2022-09-18T10:54:05.280Z,70.40
2022-09-18T10:56:51.083Z,70.30
2022-09-18T10:59:32.645Z,70.30
2022-09-18T11:02:02.565Z,70.10
2022-09-18T11:04:33.068Z,70.10
2022-09-18T11:07:07.389Z,70.20
2022-09-18T11:09:38.033Z,69.90
2022-09-18T11:12:15.601Z,69.90
2022-09-18T11:14:45.061Z,68.80
2022-09-18T11:17:23.452Z,69.20
2022-09-18T11:19:52.951Z,69.40
2022-09-18T11:22:43.080Z,69.50
2022-09-18T11:25:22.262Z,69.30
2022-09-18T11:27:53.777Z,69.70
2022-09-18T11:30:24.804Z,69.80
2022-09-18T11:32:55.035Z,69.60
2022-09-18T11:35:28.145Z,69.70
2022-09-18T11:37:59.482Z,69.60
2022-09-18T11:40:30.172Z,69.50
2022-09-18T11:42:59.850Z,69.20
2022-09-18T11:45:36.107Z,69.50
2022-09-18T11:48:08.150Z,68.90
2022-09-18T11:50:37.980Z,69.30
2022-09-18T11:53:14.373Z,68.80
2022-09-18T11:55:44.871Z,69.00
2022-09-18T11:58:18.314Z,69.50
2022-09-18T12:00:48.895Z,70.00
2022-09-18T12:03:19.919Z,69.70
2022-09-18T12:05:53.762Z,70.10
2022-09-18T12:08:33.136Z,70.50
2022-09-18T12:11:11.343Z,70.70
2022-09-18T12:13:47.063Z,70.80
2022-09-18T12:16:18.866Z,70.70
2022-09-18T12:18:49.978Z,70.50
2022-09-18T12:21:19.733Z,70.60
2022-09-18T12:23:50.811Z,70.40
2022-09-18T12:26:25.570Z,70.40
2022-09-18T12:29:10.854Z,70.20
2022-09-18T12:31:43.909Z,70.30
2022-09-18T12:34:16.713Z,70.30
2022-09-18T12:36:52.200Z,70.50
2022-09-18T12:39:29.662Z,70.20
2022-09-18T12:42:02.447Z,70.30
2022-09-18T12:44:40.303Z,70.40
2022-09-18T12:47:35.247Z,70.30
2022-09-18T12:50:07.456Z,70.20
2022-09-18T12:52:55.420Z,70.50
2022-09-18T12:55:36.601Z,70.40
2022-09-18T12:58:12.588Z,70.50
2022-09-18T13:00:41.503Z,70.30
2022-09-18T13:03:12.574Z,69.70
2022-09-18T13:05:42.403Z,69.60
2022-09-18T13:08:12.731Z,69.60
2022-09-18T13:10:43.659Z,68.80
2022-09-18T13:13:13.921Z,68.50
2022-09-18T13:15:44.439Z,68.90
2022-09-18T13:18:19.009Z,68.90
2022-09-18T13:20:48.787Z,68.80
2022-09-18T13:23:19.453Z,68.60
2022-09-18T13:25:50.785Z,69.00
2022-09-18T13:28:19.978Z,68.80
2022-09-18T13:30:48.893Z,68.30
2022-09-18T13:33:24.137Z,68.60
2022-09-18T13:35:55.458Z,68.40
2022-09-18T13:38:24.352Z,69.20
2022-09-18T13:40:59.420Z,69.30
2022-09-18T13:43:38.090Z,69.00
2022-09-18T13:46:07.454Z,69.10
2022-09-18T13:48:36.894Z,69.40
2022-09-18T13:51:06.074Z,69.50
2022-09-18T13:53:39.474Z,69.70
2022-09-18T13:56:09.770Z,69.90
2022-09-18T13:58:51.923Z,70.10
2022-09-18T14:01:38.419Z,69.90
2022-09-18T14:04:39.327Z,69.90
2022-09-18T14:07:27.515Z,70.00
2022-09-18T14:09:58.238Z,69.30
2022-09-18T14:12:31.358Z,69.60
2022-09-18T14:15:02.159Z,69.00
2022-09-18T14:17:31.087Z,68.80
2022-09-18T14:20:08.533Z,69.10
2022-09-18T14:22:38.216Z,69.10
2022-09-18T14:25:07.289Z,69.10
2022-09-18T14:27:42.289Z,69.10
2022-09-18T14:30:29.104Z,69.30
2022-09-18T14:33:16.961Z,69.50
2022-09-18T14:35:47.989Z,69.70
2022-09-18T14:38:17.409Z,70.00
2022-09-18T14:40:50.023Z,69.70
2022-09-18T14:43:21.345Z,69.90
2022-09-18T14:45:49.885Z,69.70
2022-09-18T14:48:22.538Z,69.10
2022-09-18T14:51:08.305Z,69.40
2022-09-18T14:53:44.266Z,69.60
2022-09-18T14:56:14.791Z,69.60
2022-09-18T14:58:46.325Z,69.20
2022-09-18T15:01:16.544Z,69.30
2022-09-18T15:03:46.531Z,69.30
2022-09-18T15:06:18.890Z,69.60
2022-09-18T15:08:48.545Z,69.20
2022-09-18T15:11:17.333Z,69.10
2022-09-18T15:13:47.123Z,69.30
2022-09-18T15:16:19.130Z,69.40
2022-09-18T15:18:47.561Z,70.00
2022-09-18T15:21:23.351Z,70.40
2022-09-18T15:23:51.689Z,70.30
2022-09-18T15:26:20.769Z,70.80
2022-09-18T15:28:51.337Z,70.70
2022-09-18T15:31:20.335Z,71.10
2022-09-18T15:33:55.054Z,71.30
2022-09-18T15:36:27.963Z,71.30
2022-09-18T15:38:56.749Z,71.30
2022-09-18T15:41:30.877Z,71.30
2022-09-18T15:44:00.519Z,71.90
2022-09-18T15:46:29.932Z,72.10
2022-09-18T15:49:00.579Z,72.10
2022-09-18T15:51:30.064Z,72.00
2022-09-18T15:54:06.146Z,72.10
2022-09-18T15:56:34.974Z,72.70
2022-09-18T15:59:05.428Z,73.30
2022-09-18T16:01:35.628Z,74.30
2022-09-18T16:04:09.140Z,74.90
2022-09-18T16:06:42.075Z,75.60
2022-09-18T16:09:22.947Z,75.50
2022-09-18T16:11:51.839Z,76.30
2022-09-18T16:14:38.102Z,75.90
2022-09-18T16:17:24.664Z,77.20
2022-09-18T16:19:54.196Z,77.40
2022-09-18T16:22:22.263Z,78.00
2022-09-18T16:24:50.709Z,78.50
2022-09-18T16:27:22.123Z,78.90
2022-09-18T16:29:50.568Z,79.10
2022-09-18T16:32:20.428Z,79.30
2022-09-18T16:34:48.821Z,79.50
2022-09-18T16:37:19.166Z,79.70
2022-09-18T16:39:47.196Z,79.80
2022-09-18T16:42:17.179Z,79.90
2022-09-18T16:44:45.747Z,79.90
2022-09-18T16:47:15.505Z,80.10
2022-09-18T16:49:44.465Z,80.10
2022-09-18T16:52:12.993Z,80.10
2022-09-18T16:54:42.428Z,80.00
2022-09-18T16:57:11.158Z,80.10
2022-09-18T16:59:40.167Z,79.60
2022-09-18T17:02:08.713Z,79.00
2022-09-18T17:04:36.706Z,79.40
2022-09-18T17:07:06.616Z,79.40
2022-09-18T17:09:34.720Z,79.40
2022-09-18T17:12:04.400Z,79.00
2022-09-18T17:14:32.593Z,79.30
2022-09-18T17:17:00.661Z,79.50
2022-09-18T17:19:29.007Z,79.50
2022-09-18T17:21:57.132Z,79.80
2022-09-18T17:24:27.740Z,80.00
2022-09-18T17:26:56.155Z,80.00
2022-09-18T17:29:25.884Z,80.00
2022-09-18T17:31:54.256Z,79.90
2022-09-18T17:34:22.418Z,80.10
2022-09-18T17:36:50.752Z,80.00
2022-09-18T17:39:19.151Z,80.00
2022-09-18T17:41:47.212Z,80.00
2022-09-18T17:44:16.100Z,80.20
2022-09-18T17:46:51.358Z,80.00
2022-09-18T17:49:20.346Z,80.50
2022-09-18T17:51:49.389Z,80.20
2022-09-18T17:54:18.055Z,80.20
2022-09-18T17:56:46.080Z,80.30
2022-09-18T17:59:14.337Z,80.30
2022-09-18T18:01:46.145Z,80.20
2022-09-18T18:04:16.073Z,80.60
2022-09-18T18:06:44.247Z,80.50
2022-09-18T18:09:12.298Z,80.60
2022-09-18T18:11:40.632Z,80.80
2022-09-18T18:14:08.714Z,80.80
2022-09-18T18:16:38.252Z,81.10
2022-09-18T18:19:08.296Z,81.20
2022-09-18T18:21:37.638Z,81.30
2022-09-18T18:24:08.891Z,81.40
2022-09-18T18:26:37.692Z,81.40
2022-09-18T18:29:06.526Z,81.30
2022-09-18T18:31:34.837Z,81.50
2022-09-18T18:34:03.107Z,81.60
2022-09-18T18:36:32.317Z,81.90
2022-09-18T18:39:04.351Z,81.70
2022-09-18T18:41:33.737Z,81.60
2022-09-18T18:44:05.663Z,81.40
2022-09-18T18:46:36.115Z,81.30
2022-09-18T18:49:09.166Z,81.60
2022-09-18T18:51:38.654Z,81.60
2022-09-18T18:54:08.348Z,81.50
2022-09-18T18:56:38.859Z,81.60
2022-09-18T18:59:10.992Z,81.70
2022-09-18T19:01:40.057Z,81.80
2022-09-18T19:04:09.864Z,82.00
2022-09-18T19:06:38.874Z,81.90
2022-09-18T19:09:09.487Z,81.80
2022-09-18T19:11:42.575Z,81.80
2022-09-18T19:14:13.045Z,82.00
2022-09-18T19:16:42.395Z,82.10
2022-09-18T19:19:11.300Z,82.20
2022-09-18T19:21:39.543Z,82.40
2022-09-18T19:24:09.662Z,82.60
2022-09-18T19:26:38.274Z,82.90
2022-09-18T19:29:08.964Z,83.10
2022-09-18T19:31:37.693Z,83.20
2022-09-18T19:34:06.540Z,82.80
2022-09-18T19:36:34.577Z,82.70
2022-09-18T19:39:04.181Z,82.80
2022-09-18T19:41:38.778Z,82.70
2022-09-18T19:44:08.649Z,82.50
2022-09-18T19:46:36.945Z,82.30
2022-09-18T19:49:05.445Z,82.40
2022-09-18T19:51:35.354Z,82.40
2022-09-18T19:54:04.315Z,82.40
2022-09-18T19:56:42.846Z,82.30
2022-09-18T19:59:11.707Z,82.40
2022-09-18T20:01:40.195Z,82.50
2022-09-18T20:04:08.621Z,82.70
2022-09-18T20:06:39.092Z,82.80
2022-09-18T20:09:07.317Z,82.90
2022-09-18T20:11:36.963Z,82.90
2022-09-18T20:14:05.068Z,82.90
2022-09-18T20:16:33.565Z,83.00
2022-09-18T20:19:02.386Z,82.90
2022-09-18T20:21:31.090Z,83.00
2022-09-18T20:23:59.910Z,83.00
2022-09-18T20:26:28.853Z,82.90
2022-09-18T20:28:58.608Z,82.90
2022-09-18T20:31:27.096Z,82.90
2022-09-18T20:33:55.712Z,83.00
2022-09-18T20:36:25.624Z,83.10
2022-09-18T20:39:04.217Z,83.10
2022-09-18T20:41:32.381Z,83.10
2022-09-18T20:44:03.256Z,83.20
2022-09-18T20:46:35.123Z,83.20
2022-09-18T20:49:06.432Z,83.30
2022-09-18T20:51:37.226Z,83.20
2022-09-18T20:54:08.197Z,83.30
2022-09-18T20:56:41.322Z,83.10
2022-09-18T20:59:12.359Z,83.20
2022-09-18T21:01:42.124Z,83.30
2022-09-18T21:04:17.028Z,83.40
2022-09-18T21:06:47.713Z,83.30
2022-09-18T21:09:16.077Z,83.30
2022-09-18T21:11:45.704Z,83.40
2022-09-18T21:14:17.810Z,83.50
2022-09-18T21:16:45.701Z,83.50
2022-09-18T21:19:14.716Z,83.40
2022-09-18T21:21:42.637Z,83.40
2022-09-18T21:24:10.914Z,83.40
2022-09-18T21:26:39.627Z,83.30
2022-09-18T21:29:08.518Z,83.20
2022-09-18T21:31:42.335Z,83.40
2022-09-18T21:34:11.674Z,83.40
2022-09-18T21:36:41.524Z,83.10
2022-09-18T21:39:10.774Z,83.10
2022-09-18T21:41:39.526Z,83.00
2022-09-18T21:44:08.810Z,83.10
2022-09-18T21:46:39.262Z,83.30
2022-09-18T21:49:08.822Z,83.50
2022-09-18T21:51:43.152Z,83.50
2022-09-18T21:54:14.981Z,83.60
2022-09-18T21:56:43.212Z,83.70
2022-09-18T21:59:11.746Z,83.80
2022-09-18T22:01:42.754Z,83.90
2022-09-18T22:04:11.266Z,83.90
2022-09-18T22:06:41.687Z,83.90
2022-09-18T22:09:10.485Z,83.90
2022-09-18T22:11:38.832Z,83.70
2022-09-18T22:14:08.523Z,83.90
2022-09-18T22:16:36.864Z,83.90
2022-09-18T22:19:08.195Z,83.90
2022-09-18T22:21:37.461Z,83.90
2022-09-18T22:24:07.305Z,84.00
2022-09-18T22:26:36.111Z,84.10
2022-09-18T22:29:07.461Z,83.90
2022-09-18T22:31:37.077Z,84.00
2022-09-18T22:34:09.748Z,84.10
2022-09-18T22:36:37.811Z,84.20
2022-09-18T22:39:05.836Z,84.20
2022-09-18T22:41:33.588Z,84.10
2022-09-18T22:44:01.391Z,84.20
2022-09-18T22:46:29.200Z,84.20
2022-09-18T22:48:57.040Z,84.40
2022-09-18T22:51:27.460Z,84.40
2022-09-18T22:53:56.986Z,84.50
2022-09-18T22:56:25.550Z,84.50
2022-09-18T22:58:53.815Z,84.60
2022-09-18T23:01:23.313Z,84.60
2022-09-18T23:03:52.357Z,84.70
2022-09-18T23:06:22.622Z,84.30
2022-09-18T23:08:55.362Z,84.30
2022-09-18T23:11:24.705Z,84.30
2022-09-18T23:13:53.766Z,84.30
2022-09-18T23:16:22.209Z,84.30
2022-09-18T23:18:50.828Z,84.20
2022-09-18T23:21:18.652Z,84.30
2022-09-18T23:23:48.219Z,84.40
2022-09-18T23:26:19.357Z,84.50
2022-09-18T23:28:47.765Z,84.50
2022-09-18T23:31:17.202Z,84.50
2022-09-18T23:33:48.453Z,84.30
2022-09-18T23:36:17.118Z,84.30
2022-09-18T23:38:45.263Z,84.30
2022-09-18T23:41:14.049Z,84.30
2022-09-18T23:43:45.863Z,84.20
2022-09-18T23:46:13.834Z,84.20
2022-09-18T23:48:42.165Z,84.10
2022-09-18T23:51:11.729Z,84.30
2022-09-18T23:53:40.273Z,84.30
2022-09-18T23:56:08.839Z,84.30
2022-09-18T23:58:37.060Z,84.40
